Time;durP1;ratioP1;P1;durP2;ratioP2;P2;SDS_P1;SDS_P2;PMS_P1;PMS_P2;Temp;Humidity;BMP_temperature;BMP_pressure;BME280_temperature;BME280_humidity;BME280_pressure;Samples;Min_cycle;Max_cycle;Signal;HPM_P1;HPM_P2
2021/05/23 00:02:03;;;;;;;2.70;0.80;;;;;;;13.92;60.92;95962.72;5054173;28;20171;-56
2021/05/23 00:04:29;;;;;;;0.80;0.80;;;;;;;13.84;60.72;95963.19;5054156;28;20174;-57
2021/05/23 00:06:54;;;;;;;0.80;0.77;;;;;;;13.69;61.15;95963.13;5064395;28;20426;-57
2021/05/23 00:09:19;;;;;;;2.00;1.00;;;;;;;13.61;62.09;95978.63;5067089;28;20598;-56
2021/05/23 00:11:45;;;;;;;0.90;0.90;;;;;;;13.18;63.79;95971.69;5074241;28;20243;-56
2021/05/23 00:14:10;;;;;;;1.73;1.10;;;;;;;13.49;62.80;95959.53;5073733;28;20174;-56
2021/05/23 00:16:35;;;;;;;4.53;0.90;;;;;;;13.59;63.31;95970.19;5073792;28;20173;-56
2021/05/23 00:19:01;;;;;;;1.23;1.23;;;;;;;13.11;64.97;95977.19;5073404;28;20226;-57
2021/05/23 00:21:27;;;;;;;1.70;1.27;;;;;;;13.13;65.17;95974.31;5073806;28;20171;-56
2021/05/23 00:23:53;;;;;;;2.23;1.40;;;;;;;13.33;64.48;95971.84;5062854;28;20225;-57
2021/05/23 00:26:19;;;;;;;1.20;1.10;;;;;;;13.31;64.41;95968.66;5056190;28;20171;-56
2021/05/23 00:28:44;;;;;;;2.30;0.90;;;;;;;13.06;65.91;95966.56;5060808;28;20421;-57
2021/05/23 00:31:10;;;;;;;3.37;1.23;;;;;;;13.09;65.65;95971.38;5053745;28;20171;-57
2021/05/23 00:33:36;;;;;;;0.80;0.80;;;;;;;12.95;66.82;95972.81;5065596;28;20179;-57
2021/05/23 00:36:02;;;;;;;0.80;0.80;;;;;;;13.14;66.20;95974.03;5053473;28;20182;-55
2021/05/23 00:38:28;;;;;;;1.13;0.90;;;;;;;12.93;67.20;95976.72;5065181;28;20220;-56
2021/05/23 00:40:53;;;;;;;1.13;1.03;;;;;;;12.79;68.15;95978.16;5071315;28;20799;-57
2021/05/23 00:43:20;;;;;;;2.00;0.90;;;;;;;12.67;68.84;95988.84;5061987;28;20226;-57
2021/05/23 00:45:48;;;;;;;1.13;0.90;;;;;;;12.51;69.90;95976.56;5069928;28;20174;-57
2021/05/23 00:48:13;;;;;;;1.00;1.00;;;;;;;12.47;70.35;95983.34;5067012;28;20414;-57
2021/05/23 00:50:39;;;;;;;1.73;0.90;;;;;;;12.56;70.77;95975.78;5055359;28;20507;-56
2021/05/23 00:53:06;;;;;;;1.00;0.80;;;;;;;12.53;70.79;95981.56;5053542;28;20611;-56
2021/05/23 00:55:33;;;;;;;0.73;0.60;;;;;;;12.70;70.36;95974.38;5063233;28;20203;-56
2021/05/23 00:57:58;;;;;;;1.20;1.10;;;;;;;12.34;71.20;95981.09;5052775;28;20453;-57
2021/05/23 01:00:33;;;;;;;1.17;0.90;;;;;;;12.42;71.58;95959.59;5052927;28;20437;-57
2021/05/23 01:03:02;;;;;;;1.43;1.13;;;;;;;12.33;72.13;95963.69;5062113;28;20180;-57
2021/05/23 01:05:29;;;;;;;1.13;0.90;;;;;;;12.39;73.67;95968.00;5059928;28;20413;-55
2021/05/23 01:07:55;;;;;;;2.30;2.20;;;;;;;12.19;75.57;95976.44;5056963;28;20441;-56
2021/05/23 01:10:22;;;;;;;2.20;1.00;;;;;;;12.48;76.01;95987.59;5057221;28;20839;-56
2021/05/23 01:12:54;;;;;;;1.60;0.80;;;;;;;12.25;77.31;95993.91;5058211;28;20539;-56
2021/05/23 01:15:36;;;;;;;1.23;0.80;;;;;;;12.26;77.17;95995.50;5057177;28;20426;-57
2021/05/23 01:18:04;;;;;;;1.63;1.03;;;;;;;12.21;77.71;95997.28;5058600;28;20812;-56
2021/05/23 01:20:40;;;;;;;1.33;1.00;;;;;;;12.20;77.81;95999.09;5056902;28;20430;-57
2021/05/23 01:23:24;;;;;;;2.13;0.77;;;;;;;12.14;77.86;95992.16;5070666;28;20420;-56
2021/05/23 01:25:55;;;;;;;1.23;0.93;;;;;;;12.07;78.57;96003.91;5063785;28;20416;-56
2021/05/23 01:28:21;;;;;;;0.73;0.70;;;;;;;12.13;78.04;96000.31;5076424;28;20397;-55
2021/05/23 01:30:49;;;;;;;1.93;1.10;;;;;;;12.18;78.05;95998.56;5068865;28;20434;-57
2021/05/23 01:33:18;;;;;;;1.67;1.00;;;;;;;12.26;78.07;96006.03;5069856;28;20645;-56
2021/05/23 01:35:51;;;;;;;1.37;0.80;;;;;;;12.40;76.96;96009.91;5057161;28;20488;-56
2021/05/23 01:38:19;;;;;;;0.87;0.80;;;;;;;12.46;76.95;96007.31;5062667;28;20502;-57
2021/05/23 01:40:46;;;;;;;4.73;1.23;;;;;;;12.43;77.13;96012.03;5061925;28;20430;-55
2021/05/23 01:43:13;;;;;;;1.70;0.70;;;;;;;12.55;76.40;96011.13;5056803;28;20402;-57
2021/05/23 01:45:39;;;;;;;1.00;0.90;;;;;;;12.28;77.61;96011.06;5056725;28;20409;-58
2021/05/23 01:48:07;;;;;;;0.80;0.80;;;;;;;12.56;76.22;96010.84;5067398;28;20409;-56
2021/05/23 01:50:33;;;;;;;0.90;0.80;;;;;;;12.21;78.14;96007.81;5074155;28;20795;-56
2021/05/23 01:53:02;;;;;;;0.70;0.70;;;;;;;12.18;77.64;96010.91;5076353;28;20504;-56
2021/05/23 01:55:28;;;;;;;0.70;0.70;;;;;;;12.24;78.07;96007.31;5063252;28;20422;-57
2021/05/23 01:57:54;;;;;;;2.30;1.27;;;;;;;11.83;79.51;96019.13;5069577;28;20461;-54
2021/05/23 02:00:26;;;;;;;0.77;0.77;;;;;;;11.67;80.84;96011.28;5056367;28;20428;-55
2021/05/23 02:02:52;;;;;;;1.77;0.70;;;;;;;11.84;79.62;96014.66;5056176;28;20896;-55
2021/05/23 02:05:17;;;;;;;1.93;1.00;;;;;;;11.68;80.83;96018.13;5054987;28;20436;-57
2021/05/23 02:07:43;;;;;;;2.30;0.90;;;;;;;11.93;80.14;96024.53;5055774;28;20167;-56
2021/05/23 02:10:13;;;;;;;1.00;1.00;;;;;;;11.92;80.49;96030.84;5056134;28;20422;-56
2021/05/23 02:12:41;;;;;;;0.80;0.80;;;;;;;11.78;80.54;96021.69;5060854;28;20444;-55
2021/05/23 02:15:08;;;;;;;1.00;1.00;;;;;;;11.90;80.42;96024.25;5075994;28;20416;-55
2021/05/23 02:17:35;;;;;;;1.43;0.90;;;;;;;12.03;80.02;96037.84;5075055;28;20784;-57
2021/05/23 02:20:01;;;;;;;1.10;1.00;;;;;;;11.99;82.42;96052.53;5075746;28;20457;-57
2021/05/23 02:22:26;;;;;;;3.07;0.90;;;;;;;12.12;86.77;96048.78;5075736;28;20491;-56
2021/05/23 02:24:52;;;;;;;1.10;1.00;;;;;;;12.18;86.58;96061.75;5066235;28;20175;-57
2021/05/23 02:27:17;;;;;;;2.10;1.20;;;;;;;11.72;88.83;96074.50;5063668;28;20179;-57
2021/05/23 02:29:43;;;;;;;2.13;0.70;;;;;;;11.26;92.43;96076.34;5055914;28;20314;-55
2021/05/23 02:32:08;;;;;;;3.63;0.87;;;;;;;10.64;95.58;96086.97;5055797;28;20179;-55
2021/05/23 02:34:44;;;;;;;0.77;0.77;;;;;;;10.46;97.95;96081.88;5059407;28;20599;-55
2021/05/23 02:37:10;;;;;;;1.53;0.70;;;;;;;9.94;99.51;96092.28;5075382;28;20193;-56
2021/05/23 02:39:35;;;;;;;2.10;0.87;;;;;;;10.12;98.32;96073.03;5073825;28;20464;-56
2021/05/23 02:42:01;;;;;;;0.83;0.73;;;;;;;9.99;97.48;96057.47;5064470;28;20178;-56
2021/05/23 02:44:26;;;;;;;1.33;0.50;;;;;;;10.24;97.91;96061.47;5054248;28;20194;-56
2021/05/23 02:46:51;;;;;;;2.00;0.73;;;;;;;10.27;96.12;96074.13;5055276;28;20185;-57
2021/05/23 02:49:17;;;;;;;0.90;0.73;;;;;;;9.99;94.57;96060.91;5055362;28;20595;-56
2021/05/23 02:51:42;;;;;;;0.97;0.60;;;;;;;10.11;95.59;96061.72;5057684;28;20239;-55
2021/05/23 02:54:08;;;;;;;0.70;0.60;;;;;;;10.02;95.59;96057.81;5060207;28;20202;-56
2021/05/23 02:56:34;;;;;;;0.50;0.50;;;;;;;10.09;93.78;96057.75;5064673;28;20229;-55
2021/05/23 02:59:02;;;;;;;0.90;0.50;;;;;;;10.20;94.74;96052.44;5060438;28;20474;-55
2021/05/23 03:01:27;;;;;;;0.60;0.60;;;;;;;10.29;93.62;96056.31;5057071;28;20424;-57
2021/05/23 03:03:52;;;;;;;0.50;0.50;;;;;;;10.24;95.95;96056.22;5055208;28;20950;-55
2021/05/23 03:06:18;;;;;;;0.50;0.50;;;;;;;10.14;93.91;96053.41;5055061;28;20187;-56
2021/05/23 03:08:43;;;;;;;0.97;0.60;;;;;;;10.14;95.62;96060.47;5054584;28;20158;-56
2021/05/23 03:11:08;;;;;;;1.07;0.93;;;;;;;10.10;95.87;96073.25;5056030;28;20175;-55
2021/05/23 03:13:34;;;;;;;0.80;0.40;;;;;;;10.20;94.92;96065.59;5055012;28;20174;-56
2021/05/23 03:15:59;;;;;;;1.13;0.33;;;;;;;9.99;97.29;96075.84;5070385;28;20173;-56
2021/05/23 03:18:25;;;;;;;1.10;0.73;;;;;;;9.83;97.73;96079.97;5063526;28;20556;-55
2021/05/23 03:20:50;;;;;;;0.93;0.70;;;;;;;9.79;97.12;96088.50;5054895;28;20193;-57
2021/05/23 03:23:16;;;;;;;0.60;0.40;;;;;;;9.88;97.34;96101.06;5053487;28;20178;-56
2021/05/23 03:25:42;;;;;;;0.83;0.53;;;;;;;9.57;96.52;96101.34;5054693;28;20174;-56
2021/05/23 03:28:08;;;;;;;0.57;0.57;;;;;;;9.92;95.99;96109.28;5053393;28;20412;-56
2021/05/23 03:30:37;;;;;;;0.90;0.60;;;;;;;10.03;95.55;96100.59;5054625;28;20672;-57
2021/05/23 03:33:05;;;;;;;2.30;1.00;;;;;;;10.09;94.30;96097.13;5063789;28;20880;-56
2021/05/23 03:35:30;;;;;;;0.60;0.50;;;;;;;9.93;95.47;96100.34;5074721;28;20464;-56
2021/05/23 03:37:56;;;;;;;0.57;0.43;;;;;;;10.00;93.98;96101.06;5074058;28;20554;-55
2021/05/23 03:40:22;;;;;;;1.43;0.70;;;;;;;9.79;96.56;96104.25;5074339;28;20192;-56
2021/05/23 03:42:49;;;;;;;0.70;0.57;;;;;;;10.16;95.08;96101.19;5074403;28;20705;-56
2021/05/23 03:45:20;;;;;;;1.00;0.40;;;;;;;9.90;94.52;96117.38;5060690;28;20483;-56
2021/05/23 03:47:46;;;;;;;0.63;0.63;;;;;;;9.86;96.47;96120.66;5054088;28;20921;-55
2021/05/23 03:50:17;;;;;;;1.70;0.87;;;;;;;9.48;98.72;96126.31;5054312;28;20428;-56
2021/05/23 03:52:43;;;;;;;1.67;0.50;;;;;;;9.85;97.64;96126.94;5054618;28;20435;-56
2021/05/23 03:55:08;;;;;;;0.50;0.50;;;;;;;9.64;98.27;96136.16;5054450;28;20474;-56
2021/05/23 03:57:34;;;;;;;0.73;0.53;;;;;;;9.74;97.93;96133.78;5053826;28;20179;-56
2021/05/23 04:00:00;;;;;;;0.50;0.50;;;;;;;9.38;100.00;96136.56;5066993;28;20603;-56
2021/05/23 04:02:25;;;;;;;0.50;0.50;;;;;;;9.53;100.00;96149.25;5074149;28;20169;-57
2021/05/23 04:04:57;;;;;;;0.63;0.50;;;;;;;9.67;99.44;96148.84;5074088;28;20168;-56
2021/05/23 04:07:23;;;;;;;0.50;0.50;;;;;;;9.70;99.57;96158.88;5073753;28;20172;-56
2021/05/23 04:09:50;;;;;;;0.60;0.60;;;;;;;9.53;99.93;96151.88;5073836;28;20968;-56
2021/05/23 04:12:21;;;;;;;1.90;0.80;;;;;;;9.73;99.67;96162.88;5073884;28;20406;-56
2021/05/23 04:14:47;;;;;;;0.60;0.60;;;;;;;9.82;98.98;96172.81;5062571;28;20418;-57
2021/05/23 04:17:12;;;;;;;1.33;0.60;;;;;;;9.89;99.27;96170.09;5065627;28;20428;-56
2021/05/23 04:19:38;;;;;;;0.80;0.50;;;;;;;9.59;100.00;96171.94;5053482;28;20235;-55
2021/05/23 04:22:04;;;;;;;0.80;0.60;;;;;;;9.68;100.00;96175.84;5053594;28;20170;-56
2021/05/23 04:24:30;;;;;;;1.07;0.60;;;;;;;9.77;99.51;96175.31;5053856;28;20518;-55
2021/05/23 04:26:56;;;;;;;0.87;0.70;;;;;;;9.82;99.73;96172.03;5053444;28;20405;-57
2021/05/23 04:29:21;;;;;;;1.27;0.70;;;;;;;9.63;100.00;96184.41;5054309;28;20479;-55
2021/05/23 04:31:46;;;;;;;1.43;0.90;;;;;;;9.79;100.00;96191.63;5067147;28;20175;-57
2021/05/23 04:34:12;;;;;;;1.27;0.90;;;;;;;9.94;99.87;96189.38;5053502;28;20183;-56
2021/05/23 04:36:37;;;;;;;0.70;0.70;;;;;;;9.79;99.79;96191.63;5053686;28;20177;-55
2021/05/23 04:39:06;;;;;;;0.93;0.93;;;;;;;9.89;99.20;96186.63;5051468;28;20300;-56
2021/05/23 04:41:32;;;;;;;0.83;0.70;;;;;;;9.84;99.37;96185.69;5053632;28;20243;-55
2021/05/23 04:43:57;;;;;;;0.70;0.70;;;;;;;10.00;99.23;96188.47;5063229;28;20418;-57
2021/05/23 04:46:23;;;;;;;0.70;0.70;;;;;;;10.04;98.60;96196.69;5067436;28;20417;-56
2021/05/23 04:48:48;;;;;;;1.13;0.70;;;;;;;9.98;99.93;96197.59;5071799;28;20207;-56
2021/05/23 04:51:16;;;;;;;1.50;0.60;;;;;;;9.92;100.00;96194.06;5073262;28;20168;-56
2021/05/23 04:53:41;;;;;;;0.70;0.70;;;;;;;10.02;99.65;96198.72;5073511;28;20185;-56
2021/05/23 04:56:07;;;;;;;0.60;0.60;;;;;;;9.96;100.00;96203.09;5072140;28;20409;-55
2021/05/23 04:58:32;;;;;;;1.50;1.10;;;;;;;9.89;100.00;96215.47;5064578;28;20572;-57
2021/05/23 05:00:58;;;;;;;1.00;0.60;;;;;;;10.10;99.27;96216.81;5053264;28;20196;-56
2021/05/23 05:03:23;;;;;;;0.80;0.80;;;;;;;9.82;100.00;96219.25;5053332;28;20172;-56
2021/05/23 05:05:48;;;;;;;1.50;0.80;;;;;;;9.79;100.00;96225.72;5053389;28;20522;-57
2021/05/23 05:08:14;;;;;;;1.30;1.20;;;;;;;9.88;100.00;96231.44;5052861;28;20229;-56
2021/05/23 05:10:39;;;;;;;0.93;0.60;;;;;;;10.20;99.41;96232.81;5053112;28;20225;-56
2021/05/23 05:13:05;;;;;;;2.40;0.90;;;;;;;9.96;100.00;96239.81;5058784;28;20260;-56
2021/05/23 05:15:30;;;;;;;1.63;0.70;;;;;;;10.14;99.64;96242.41;5072975;28;20510;-56
2021/05/23 05:17:56;;;;;;;0.70;0.70;;;;;;;10.22;99.65;96242.06;5072604;28;20201;-56
2021/05/23 05:20:21;;;;;;;1.03;0.80;;;;;;;10.25;99.22;96238.97;5073197;28;20193;-56
2021/05/23 05:22:47;;;;;;;0.83;0.83;;;;;;;10.32;98.92;96236.25;5073142;28;20177;-56
2021/05/23 05:25:12;;;;;;;1.00;0.70;;;;;;;10.64;97.91;96244.59;5073244;28;20704;-55
2021/05/23 05:27:38;;;;;;;2.60;0.90;;;;;;;10.64;98.00;96248.03;5068055;28;20253;-56
2021/05/23 05:30:05;;;;;;;1.20;0.90;;;;;;;10.96;96.56;96241.38;5067209;28;20566;-57
2021/05/23 05:32:31;;;;;;;1.23;1.13;;;;;;;10.96;96.60;96249.28;5068721;28;20181;-56
2021/05/23 05:34:56;;;;;;;1.20;0.80;;;;;;;11.08;96.64;96262.41;5052863;28;20422;-56
2021/05/23 05:37:22;;;;;;;2.47;0.90;;;;;;;11.10;96.43;96265.63;5052664;28;20179;-56
2021/05/23 05:39:47;;;;;;;0.87;0.87;;;;;;;11.13;95.81;96273.84;5052805;28;20215;-56
2021/05/23 05:42:12;;;;;;;1.33;1.00;;;;;;;10.91;96.93;96282.53;5053014;28;20500;-56
2021/05/23 05:44:38;;;;;;;0.80;0.80;;;;;;;11.05;97.21;96289.19;5052959;28;20269;-56
2021/05/23 05:47:03;;;;;;;1.90;1.07;;;;;;;10.99;96.01;96300.59;5053881;28;20194;-57
2021/05/23 05:49:29;;;;;;;0.90;0.90;;;;;;;10.85;97.64;96293.97;5072921;28;20193;-56
2021/05/23 05:51:54;;;;;;;1.00;0.90;;;;;;;10.84;98.98;96308.94;5074768;28;20648;-55
2021/05/23 05:54:19;;;;;;;0.80;0.80;;;;;;;10.86;99.26;96316.59;5076432;28;20192;-56
2021/05/23 05:56:45;;;;;;;0.93;0.70;;;;;;;10.64;99.27;96318.16;5066578;28;20183;-55
2021/05/23 05:59:10;;;;;;;0.70;0.70;;;;;;;10.57;100.00;96314.84;5056060;28;20708;-56
2021/05/23 06:01:36;;;;;;;0.80;0.80;;;;;;;10.68;99.53;96327.22;5056967;28;20240;-56
2021/05/23 06:04:01;;;;;;;1.80;0.87;;;;;;;10.72;98.88;96320.47;5056534;28;20199;-56
2021/05/23 06:06:27;;;;;;;0.80;0.80;;;;;;;10.66;98.91;96326.63;5056279;28;20625;-55
2021/05/23 06:08:54;;;;;;;1.63;1.10;;;;;;;10.66;99.07;96322.19;5074285;28;20182;-56
2021/05/23 06:11:19;;;;;;;1.27;0.80;;;;;;;10.51;99.27;96328.91;5076368;28;20177;-56
2021/05/23 06:13:45;;;;;;;1.00;0.93;;;;;;;10.69;98.55;96321.72;5076324;28;20906;-55
2021/05/23 06:16:10;;;;;;;1.77;1.10;;;;;;;10.78;97.63;96324.84;5076222;28;20170;-56
2021/05/23 06:18:35;;;;;;;0.70;0.70;;;;;;;10.82;98.43;96325.97;5075607;28;20213;-55
2021/05/23 06:21:01;;;;;;;1.00;0.87;;;;;;;10.96;97.60;96328.13;5073745;28;20208;-57
2021/05/23 06:23:26;;;;;;;0.90;0.90;;;;;;;10.80;96.08;96323.56;5058474;28;20709;-55
2021/05/23 06:25:53;;;;;;;0.90;0.90;;;;;;;11.02;96.31;96332.50;5056003;28;20185;-57
2021/05/23 06:28:21;;;;;;;1.20;1.10;;;;;;;10.86;95.81;96327.09;5055462;28;20194;-56
2021/05/23 06:30:46;;;;;;;0.70;0.70;;;;;;;11.18;95.87;96325.72;5062821;28;20428;-55
2021/05/23 06:33:12;;;;;;;1.33;0.83;;;;;;;11.08;96.04;96330.78;5075774;28;20809;-57
2021/05/23 06:35:37;;;;;;;0.80;0.70;;;;;;;11.22;94.94;96332.13;5073768;28;20179;-56
2021/05/23 06:38:03;;;;;;;0.60;0.50;;;;;;;11.20;94.08;96331.56;5075277;28;20285;-57
2021/05/23 06:40:28;;;;;;;1.23;0.70;;;;;;;11.11;96.02;96340.81;5075703;28;20190;-57
2021/05/23 06:42:53;;;;;;;1.70;1.10;;;;;;;10.96;95.36;96338.66;5075762;28;20258;-57
2021/05/23 06:45:19;;;;;;;2.00;1.20;;;;;;;11.17;94.59;96337.28;5072496;28;20254;-56
2021/05/23 06:47:44;;;;;;;1.03;0.90;;;;;;;11.05;92.86;96342.53;5058442;28;20258;-57
2021/05/23 06:50:10;;;;;;;1.43;0.87;;;;;;;11.06;93.90;96348.59;5075086;28;20202;-55
2021/05/23 06:52:35;;;;;;;1.33;0.87;;;;;;;10.87;94.84;96349.75;5075200;28;20190;-56
2021/05/23 06:55:01;;;;;;;0.70;0.70;;;;;;;10.96;94.31;96348.38;5072595;28;20413;-56
2021/05/23 06:57:28;;;;;;;1.13;0.80;;;;;;;11.13;93.96;96352.72;5073442;28;20170;-56
2021/05/23 06:59:54;;;;;;;0.60;0.53;;;;;;;11.04;93.25;96353.28;5074882;28;20256;-57
2021/05/23 07:02:21;;;;;;;0.83;0.67;;;;;;;10.91;94.16;96343.00;5074519;28;20420;-56
2021/05/23 07:04:47;;;;;;;0.70;0.70;;;;;;;10.95;93.85;96337.06;5073880;28;20182;-55
2021/05/23 07:07:12;;;;;;;4.00;0.70;;;;;;;10.96;92.43;96340.50;5069381;28;20418;-56
2021/05/23 07:09:39;;;;;;;2.10;0.80;;;;;;;11.11;93.43;96351.34;5055045;28;20194;-55
2021/05/23 07:12:05;;;;;;;0.87;0.60;;;;;;;10.95;94.41;96339.69;5055101;28;20181;-55
2021/05/23 07:14:30;;;;;;;1.33;1.00;;;;;;;10.97;93.25;96342.91;5054800;28;20872;-55
2021/05/23 07:16:56;;;;;;;1.00;0.90;;;;;;;11.21;93.89;96348.97;5055885;28;20433;-57
2021/05/23 07:19:21;;;;;;;0.77;0.70;;;;;;;11.15;92.10;96349.88;5054551;28;20242;-57
2021/05/23 07:21:46;;;;;;;1.70;0.80;;;;;;;11.35;89.22;96364.28;5057901;28;20163;-56
2021/05/23 07:24:12;;;;;;;2.90;0.70;;;;;;;11.44;89.01;96351.56;5073470;28;20178;-56
2021/05/23 07:26:38;;;;;;;1.20;0.90;;;;;;;11.75;89.06;96363.56;5054754;28;20305;-56
2021/05/23 07:29:04;;;;;;;0.73;0.63;;;;;;;11.59;86.16;96351.88;5055259;28;20187;-55
2021/05/23 07:31:31;;;;;;;2.30;0.73;;;;;;;11.49;87.75;96354.28;5054730;28;20471;-57
2021/05/23 07:33:58;;;;;;;0.97;0.80;;;;;;;11.72;85.83;96351.63;5054795;28;20573;-55
2021/05/23 07:36:23;;;;;;;0.63;0.63;;;;;;;11.61;88.86;96377.97;5054699;28;20402;-56
2021/05/23 07:38:49;;;;;;;0.90;0.70;;;;;;;11.49;91.19;96383.25;5052726;28;20465;-56
2021/05/23 07:41:14;;;;;;;1.43;0.87;;;;;;;11.05;94.92;96410.13;5070489;28;20170;-56
2021/05/23 07:43:40;;;;;;;0.90;0.70;;;;;;;10.40;90.16;96395.34;5055324;28;20184;-56
2021/05/23 07:46:05;;;;;;;0.70;0.50;;;;;;;10.31;93.45;96400.91;5058671;28;20186;-56
2021/05/23 07:48:31;;;;;;;0.90;0.57;;;;;;;10.47;95.59;96390.78;5073916;28;20176;-55
2021/05/23 07:50:57;;;;;;;0.60;0.60;;;;;;;10.49;95.05;96391.38;5074263;28;20225;-56
2021/05/23 07:53:22;;;;;;;0.93;0.63;;;;;;;10.66;96.37;96385.25;5074194;28;20201;-57
2021/05/23 07:55:48;;;;;;;1.40;0.73;;;;;;;11.00;94.36;96386.31;5072943;28;20405;-57
2021/05/23 07:58:13;;;;;;;1.63;0.50;;;;;;;10.84;94.67;96384.34;5057668;28;20199;-56
2021/05/23 08:00:39;;;;;;;2.03;0.63;;;;;;;10.69;94.73;96387.41;5069205;28;20252;-55
2021/05/23 08:03:05;;;;;;;2.00;0.67;;;;;;;10.40;94.84;96384.84;5074077;28;20832;-56
2021/05/23 08:05:30;;;;;;;1.13;0.63;;;;;;;10.38;93.70;96381.63;5074037;28;20265;-56
2021/05/23 08:07:56;;;;;;;1.27;0.60;;;;;;;10.59;94.97;96383.75;5073482;28;20167;-55
2021/05/23 08:10:22;;;;;;;1.33;1.20;;;;;;;10.76;96.12;96385.47;5069299;28;20195;-55
2021/05/23 08:12:47;;;;;;;0.97;0.60;;;;;;;10.96;96.88;96385.97;5058929;28;20182;-55
2021/05/23 08:15:13;;;;;;;1.30;0.70;;;;;;;10.80;97.45;96385.81;5066922;28;20249;-56
2021/05/23 08:17:40;;;;;;;2.20;0.83;;;;;;;10.82;95.67;96387.22;5073457;28;20174;-55
2021/05/23 08:20:07;;;;;;;3.10;0.70;;;;;;;10.71;94.28;96388.00;5073862;28;20214;-54
2021/05/23 08:22:33;;;;;;;1.13;0.60;;;;;;;11.08;95.16;96381.53;5073540;28;20776;-56
2021/05/23 08:25:02;;;;;;;1.67;0.80;;;;;;;11.49;98.60;96382.44;5074982;28;20507;-56
2021/05/23 08:27:28;;;;;;;2.80;0.90;;;;;;;11.60;93.23;96392.94;5073270;28;20405;-56
2021/05/23 08:29:53;;;;;;;2.00;0.77;;;;;;;11.93;93.21;96397.63;5072828;28;20432;-57
2021/05/23 08:32:21;;;;;;;2.53;1.20;;;;;;;11.81;91.33;96392.38;5071973;28;20422;-55
2021/05/23 08:34:46;;;;;;;1.80;1.00;;;;;;;12.13;91.04;96396.19;5062021;28;20313;-56
2021/05/23 08:37:11;;;;;;;1.00;0.80;;;;;;;12.19;90.99;96403.13;5073133;28;20502;-55
2021/05/23 08:39:37;;;;;;;3.37;0.70;;;;;;;11.83;88.00;96407.94;5059345;28;20566;-55
2021/05/23 08:42:03;;;;;;;1.73;0.83;;;;;;;12.09;84.51;96396.88;5053356;28;20310;-56
2021/05/23 08:44:28;;;;;;;6.17;0.80;;;;;;;12.27;83.13;96392.25;5053581;28;20182;-56
2021/05/23 08:46:54;;;;;;;1.47;0.90;;;;;;;12.59;83.95;96408.34;5053088;28;20410;-56
2021/05/23 08:49:21;;;;;;;1.60;0.43;;;;;;;12.65;81.76;96407.41;5053234;28;20191;-56
2021/05/23 08:51:47;;;;;;;0.97;0.80;;;;;;;12.52;79.67;96410.34;5066880;28;20213;-56
2021/05/23 08:54:14;;;;;;;2.00;1.00;;;;;;;12.56;81.48;96413.31;5073337;28;20423;-55
2021/05/23 08:56:41;;;;;;;0.83;0.77;;;;;;;12.86;75.85;96408.59;5060179;28;20513;-56
2021/05/23 08:59:08;;;;;;;1.50;0.73;;;;;;;12.69;80.39;96403.28;5052696;28;20991;-55
2021/05/23 09:01:33;;;;;;;1.87;0.97;;;;;;;12.90;79.10;96404.44;5053241;28;20930;-56
2021/05/23 09:04:04;;;;;;;1.47;0.90;;;;;;;13.05;76.97;96402.88;5053095;28;20557;-56
2021/05/23 09:06:34;;;;;;;0.90;0.90;;;;;;;12.87;75.68;96399.63;5054970;28;20171;-57
2021/05/23 09:09:07;;;;;;;2.67;0.90;;;;;;;13.09;74.30;96404.00;5063626;28;20965;-56
2021/05/23 09:11:32;;;;;;;1.47;0.70;;;;;;;13.34;69.71;96409.66;5058416;28;20812;-56
2021/05/23 09:13:58;;;;;;;0.80;0.70;;;;;;;13.69;72.30;96414.66;5053199;28;20402;-55
2021/05/23 09:16:24;;;;;;;1.30;0.90;;;;;;;13.65;73.11;96402.97;5054599;28;20245;-55
2021/05/23 09:18:56;;;;;;;0.87;0.70;;;;;;;13.53;74.40;96410.19;5052713;28;20446;-56
2021/05/23 09:21:28;;;;;;;1.23;0.60;;;;;;;13.33;73.20;96421.22;5053233;28;20414;-56
2021/05/23 09:23:57;;;;;;;2.07;0.80;;;;;;;13.29;72.22;96421.97;5054448;28;20410;-56
2021/05/23 09:26:24;;;;;;;3.30;1.00;;;;;;;13.14;70.79;96416.44;5073435;28;20417;-56
2021/05/23 09:28:51;;;;;;;0.90;0.80;;;;;;;12.96;71.14;96429.84;5068813;28;20505;-56
2021/05/23 09:31:24;;;;;;;2.63;0.90;;;;;;;13.05;69.20;96439.00;5060296;28;20413;-56
2021/05/23 09:33:53;;;;;;;1.60;0.60;;;;;;;12.26;72.67;96459.16;5075494;28;20412;-57
2021/05/23 09:36:20;;;;;;;0.90;0.80;;;;;;;11.81;81.07;96473.19;5076968;28;20487;-56
2021/05/23 09:39:00;;;;;;;0.70;0.50;;;;;;;11.47;83.85;96482.63;5075197;28;20871;-56
2021/05/23 09:41:28;;;;;;;0.60;0.60;;;;;;;11.30;83.79;96474.63;5059868;28;20478;-57
2021/05/23 09:44:13;;;;;;;2.90;0.73;;;;;;;11.11;80.33;96467.03;5066294;28;20429;-55
2021/05/23 09:47:03;;;;;;;0.60;0.57;;;;;;;11.55;80.98;96461.25;5069314;28;20787;-56
2021/05/23 09:49:31;;;;;;;1.33;0.97;;;;;;;11.63;82.12;96462.75;5072939;28;20784;-56
2021/05/23 09:52:02;;;;;;;1.83;0.60;;;;;;;11.61;79.50;96460.38;5072838;28;20416;-56
2021/05/23 09:54:41;;;;;;;2.77;0.53;;;;;;;11.65;86.20;96461.50;5072398;28;20416;-55
2021/05/23 09:57:15;;;;;;;1.77;0.77;;;;;;;11.91;83.52;96463.69;5065859;28;20460;-57
2021/05/23 09:59:41;;;;;;;1.70;0.50;;;;;;;12.06;82.15;96464.00;5052956;28;20488;-56
2021/05/23 10:02:12;;;;;;;1.70;0.90;;;;;;;12.36;84.06;96459.34;5052836;28;20460;-56
2021/05/23 10:04:39;;;;;;;1.07;0.77;;;;;;;12.43;81.79;96464.47;5052768;28;20270;-56
2021/05/23 10:07:07;;;;;;;0.80;0.60;;;;;;;12.47;80.45;96462.97;5051881;28;20482;-56
2021/05/23 10:09:34;;;;;;;1.13;0.60;;;;;;;12.35;79.09;96457.75;5062170;28;20938;-55
2021/05/23 10:12:00;;;;;;;1.00;0.57;;;;;;;12.36;82.11;96461.97;5071209;28;20500;-54
2021/05/23 10:14:27;;;;;;;2.77;1.00;;;;;;;12.69;80.28;96468.38;5057270;28;20424;-55
2021/05/23 10:16:53;;;;;;;0.70;0.70;;;;;;;12.72;78.85;96460.03;5055305;28;20912;-55
2021/05/23 10:19:25;;;;;;;1.17;0.60;;;;;;;12.64;75.49;96460.38;5051498;28;20798;-56
2021/05/23 10:21:52;;;;;;;1.53;0.70;;;;;;;12.97;76.38;96457.81;5052435;28;20903;-55
2021/05/23 10:24:25;;;;;;;1.80;0.80;;;;;;;13.25;74.92;96469.16;5052279;28;20817;-55
2021/05/23 10:26:55;;;;;;;1.47;0.63;;;;;;;13.41;71.25;96456.97;5051794;28;20489;-56
2021/05/23 10:29:22;;;;;;;0.80;0.63;;;;;;;13.41;70.81;96452.50;5052477;28;20825;-55
2021/05/23 10:31:48;;;;;;;1.10;0.80;;;;;;;13.56;66.91;96451.94;5069093;28;20508;-55
2021/05/23 10:34:13;;;;;;;1.00;0.93;;;;;;;13.88;68.24;96460.84;5072309;28;20512;-55
2021/05/23 10:36:41;;;;;;;2.00;0.77;;;;;;;14.18;68.04;96450.69;5071911;28;20175;-55
2021/05/23 10:39:13;;;;;;;1.53;0.70;;;;;;;14.46;62.95;96451.56;5071763;28;20218;-54
2021/05/23 10:41:39;;;;;;;2.10;0.60;;;;;;;14.17;64.70;96461.50;5071785;28;20437;-55
2021/05/23 10:44:07;;;;;;;1.27;0.80;;;;;;;14.21;66.26;96455.47;5072274;28;20442;-54
2021/05/23 10:46:44;;;;;;;1.30;0.50;;;;;;;14.12;63.54;96459.59;5063220;28;20909;-54
2021/05/23 10:49:09;;;;;;;1.33;0.70;;;;;;;14.35;66.12;96446.16;5059070;28;21019;-54
2021/05/23 10:51:34;;;;;;;3.10;0.80;;;;;;;14.74;66.22;96446.06;5071783;28;20420;-54
2021/05/23 10:54:00;;;;;;;1.17;0.60;;;;;;;14.26;64.44;96452.09;5061328;28;20195;-54
2021/05/23 10:56:30;;;;;;;1.50;0.80;;;;;;;14.24;62.91;96449.69;5053550;28;20183;-55
2021/05/23 10:59:00;;;;;;;5.13;1.03;;;;;;;14.42;63.99;96452.06;5067088;28;20199;-54
2021/05/23 11:04:13;;;;;;;1.80;0.60;;;;;;;13.78;69.75;96473.94;5357876;23;20511;-59
2021/05/23 11:06:39;;;;;;;2.43;0.93;;;;;;;13.71;73.82;96483.88;4973381;28;20418;-58
2021/05/23 11:09:23;;;;;;;1.67;0.70;;;;;;;13.54;72.89;96483.06;4987385;28;20437;-55
2021/05/23 11:11:49;;;;;;;4.20;1.23;;;;;;;13.57;73.04;96481.78;4955439;28;20962;-59
2021/05/23 11:14:16;;;;;;;1.33;0.80;;;;;;;13.72;72.36;96480.16;4973981;28;20454;-54
2021/05/23 11:16:52;;;;;;;2.87;0.80;;;;;;;14.18;70.47;96476.31;4974242;28;20208;-60
2021/05/23 11:19:18;;;;;;;0.80;0.70;;;;;;;14.25;69.94;96480.38;4983304;28;20517;-59
2021/05/23 11:21:46;;;;;;;1.73;0.70;;;;;;;14.52;69.03;96469.06;4976426;28;20460;-54
2021/05/23 11:24:11;;;;;;;1.07;0.70;;;;;;;15.05;68.18;96471.75;4982720;28;20481;-53
2021/05/23 11:26:37;;;;;;;0.60;0.57;;;;;;;14.33;62.99;96474.69;4993419;28;20440;-54
2021/05/23 11:29:04;;;;;;;1.27;0.83;;;;;;;14.39;64.34;96478.19;4984303;28;20580;-58
2021/05/23 11:31:36;;;;;;;0.93;0.50;;;;;;;14.60;64.80;96471.31;4975646;28;20449;-58
2021/05/23 11:34:04;;;;;;;0.37;0.37;;;;;;;14.47;61.46;96474.31;4974445;28;20444;-58
2021/05/23 11:36:32;;;;;;;0.40;0.40;;;;;;;14.90;62.56;96469.78;4980036;28;20421;-54